createdAt,value
2023-04-01T00:27:46.419Z,95.00
2023-04-01T00:32:53.750Z,95.10
2023-04-01T00:37:56.441Z,95.20
2023-04-01T00:43:01.090Z,95.00
2023-04-01T00:48:11.174Z,95.60
2023-04-01T00:53:15.104Z,95.40
2023-04-01T00:58:25.294Z,94.80
2023-04-01T01:03:27.871Z,95.30
2023-04-01T01:08:53.834Z,95.60
2023-04-01T01:14:10.083Z,95.90
2023-04-01T01:19:35.943Z,96.10
2023-04-01T01:24:56.881Z,97.00
2023-04-01T01:30:21.852Z,96.30
2023-04-01T01:35:32.288Z,96.60
2023-04-01T01:40:40.164Z,96.50
2023-04-01T01:45:47.575Z,96.10
2023-04-01T01:50:52.841Z,96.60
2023-04-01T01:55:56.047Z,96.30
2023-04-01T02:01:03.953Z,96.00
2023-04-01T02:06:11.493Z,95.10
2023-04-01T02:11:18.232Z,96.30
2023-04-01T02:16:33.160Z,95.90
2023-04-01T02:21:38.840Z,95.80
2023-04-01T02:26:42.594Z,94.90
2023-04-01T02:31:45.490Z,95.20
2023-04-01T02:36:51.550Z,95.00
2023-04-01T02:41:54.609Z,94.90
2023-04-01T02:46:57.120Z,95.30
2023-04-01T02:52:00.915Z,95.70
2023-04-01T02:57:06.045Z,95.40
2023-04-01T03:02:08.582Z,95.20
2023-04-01T03:07:12.434Z,94.70
2023-04-01T03:12:14.815Z,94.60
2023-04-01T03:17:25.683Z,95.60
2023-04-01T03:22:30.950Z,95.70
2023-04-01T03:27:33.419Z,95.90
2023-04-01T03:32:35.988Z,95.70
2023-04-01T03:37:40.168Z,95.00
2023-04-01T03:42:43.397Z,95.10
2023-04-01T03:47:46.161Z,95.30
2023-04-01T03:52:50.065Z,95.00
2023-04-01T03:57:52.440Z,95.40
2023-04-01T04:02:56.609Z,95.60
2023-04-01T04:08:07.029Z,95.50
2023-04-01T04:13:10.520Z,95.60
2023-04-01T04:18:19.272Z,95.80
2023-04-01T04:23:23.673Z,95.00
2023-04-01T04:28:28.840Z,95.50
2023-04-01T04:33:34.075Z,95.50
2023-04-01T04:38:38.221Z,95.10
2023-04-01T04:43:41.806Z,95.80
2023-04-01T04:48:44.435Z,95.50
2023-04-01T04:53:50.770Z,95.70
2023-04-01T04:58:55.873Z,95.70
2023-04-01T05:04:03.224Z,95.30
2023-04-01T05:09:07.883Z,95.50
2023-04-01T05:14:14.863Z,96.50
2023-04-01T05:19:20.709Z,95.70
2023-04-01T05:24:25.023Z,96.80
2023-04-01T05:29:28.714Z,96.70
2023-04-01T05:34:38.734Z,96.30
2023-04-01T05:39:43.209Z,96.40
2023-04-01T05:44:45.805Z,96.10
2023-04-01T05:50:07.574Z,96.40
2023-04-01T05:55:12.170Z,96.00
2023-04-01T06:00:16.189Z,95.10
2023-04-01T06:05:23.468Z,95.50
2023-04-01T06:10:45.280Z,94.80
2023-04-01T06:16:03.569Z,95.60
2023-04-01T06:21:29.585Z,95.20
2023-04-01T06:26:51.029Z,95.20
2023-04-01T06:32:23.692Z,95.30
2023-04-01T06:38:07.960Z,94.70
2023-04-01T06:43:22.226Z,95.20
2023-04-01T06:49:07.231Z,94.50
2023-04-01T06:54:40.593Z,95.10
2023-04-01T06:59:44.940Z,95.10
2023-04-01T07:04:54.556Z,94.90
2023-04-01T07:10:03.664Z,94.90
2023-04-01T07:15:20.476Z,94.50
2023-04-01T07:20:30.786Z,94.20
2023-04-01T07:25:39.436Z,95.00
2023-04-01T07:31:23.321Z,94.60
2023-04-01T07:36:34.541Z,94.30
2023-04-01T07:41:52.607Z,94.30
2023-04-01T07:47:20.008Z,93.70
2023-04-01T07:52:35.876Z,94.10
2023-04-01T07:57:59.712Z,93.70
2023-04-01T08:03:49.336Z,93.60
2023-04-01T08:09:07.303Z,94.50
2023-04-01T08:14:40.312Z,94.50
2023-04-01T08:20:24.121Z,94.20
2023-04-01T08:25:30.710Z,93.40
2023-04-01T08:30:44.042Z,93.30
2023-04-01T08:35:57.413Z,94.10
2023-04-01T08:41:04.609Z,94.00
2023-04-01T08:47:32.513Z,93.90
2023-04-01T08:52:49.121Z,94.10
2023-04-01T08:58:20.421Z,94.10
2023-04-01T09:04:06.816Z,94.30
2023-04-01T09:10:41.441Z,94.20
2023-04-01T09:16:36.417Z,93.80
2023-04-01T09:22:06.396Z,93.90
2023-04-01T09:27:27.778Z,93.60
2023-04-01T09:33:28.044Z,93.40
2023-04-01T09:38:43.909Z,93.90
2023-04-01T09:44:03.185Z,94.00
2023-04-01T09:49:59.556Z,93.70
2023-04-01T09:55:29.460Z,93.10
2023-04-01T10:01:02.606Z,93.00
2023-04-01T10:06:50.517Z,93.00
2023-04-01T10:12:38.749Z,92.40
2023-04-01T10:18:19.114Z,92.30
2023-04-01T10:24:15.646Z,91.90
2023-04-01T10:30:04.731Z,92.10
2023-04-01T10:36:00.306Z,92.20
2023-04-01T10:41:54.162Z,91.50
2023-04-01T10:48:24.636Z,92.00
2023-04-01T10:54:00.349Z,91.40
2023-04-01T11:00:09.658Z,91.40
2023-04-01T11:06:35.062Z,91.20
2023-04-01T11:12:38.501Z,91.20
2023-04-01T11:18:25.561Z,90.80
2023-04-01T11:24:05.180Z,91.00
2023-04-01T11:29:56.762Z,90.50
2023-04-01T11:35:37.513Z,90.60
2023-04-01T11:40:48.593Z,90.80
2023-04-01T11:46:16.162Z,90.80
2023-04-01T11:51:42.989Z,90.60
2023-04-01T11:57:07.872Z,90.30
2023-04-01T12:02:25.056Z,90.50
2023-04-01T12:07:52.087Z,90.60
2023-04-01T12:13:08.572Z,90.90
2023-04-01T12:18:24.769Z,91.00
2023-04-01T12:23:57.559Z,91.00
2023-04-01T12:29:22.610Z,90.20
2023-04-01T12:34:56.940Z,90.50
2023-04-01T12:40:44.681Z,90.10
2023-04-01T12:46:01.696Z,90.10
2023-04-01T12:51:38.101Z,90.40
2023-04-01T12:56:53.954Z,90.70
2023-04-01T13:02:14.138Z,90.60
2023-04-01T13:07:56.372Z,90.30
2023-04-01T13:13:39.795Z,90.10
2023-04-01T13:18:57.942Z,90.10
2023-04-01T13:24:20.092Z,90.00
2023-04-01T13:29:28.940Z,90.00
2023-04-01T13:34:47.959Z,90.00
2023-04-01T13:40:14.590Z,89.40
2023-04-01T13:45:21.053Z,90.10
2023-04-01T13:51:11.969Z,90.50
2023-04-01T13:56:35.254Z,90.30
2023-04-01T14:01:49.869Z,90.30
2023-04-01T14:07:15.292Z,90.40
2023-04-01T14:12:32.690Z,90.50
2023-04-01T14:18:04.159Z,90.60
2023-04-01T14:23:24.961Z,90.40
2023-04-01T14:28:42.124Z,90.90
2023-04-01T14:33:59.453Z,90.80
2023-04-01T14:39:25.092Z,91.50
2023-04-01T14:45:13.357Z,91.10
2023-04-01T14:50:20.863Z,90.70
2023-04-01T14:55:34.234Z,90.80
2023-04-01T15:01:14.208Z,90.90
2023-04-01T15:07:01.942Z,91.20
2023-04-01T15:12:25.157Z,91.50
2023-04-01T15:17:49.436Z,92.30
2023-04-01T15:23:12.852Z,91.90
2023-04-01T15:28:33.029Z,92.10
2023-04-01T15:33:55.201Z,91.10
2023-04-01T15:39:11.817Z,91.20
2023-04-01T15:44:59.983Z,91.40
2023-04-01T15:50:47.133Z,91.40
2023-04-01T15:55:58.350Z,91.10
2023-04-01T16:01:17.277Z,91.30
2023-04-01T16:07:00.391Z,90.70
2023-04-01T16:12:16.188Z,91.20
2023-04-01T16:18:16.168Z,91.70
2023-04-01T16:23:29.982Z,91.20
2023-04-01T16:28:41.135Z,91.10
2023-04-01T16:33:56.165Z,91.80
2023-04-01T16:39:34.547Z,91.60
2023-04-01T16:44:53.695Z,91.50
2023-04-01T16:50:07.439Z,91.30
2023-04-01T16:55:17.924Z,91.40
2023-04-01T17:00:31.822Z,91.30
2023-04-01T17:06:02.130Z,91.40
2023-04-01T17:11:17.235Z,90.80
2023-04-01T17:17:11.904Z,90.50
2023-04-01T17:22:29.861Z,90.90
2023-04-01T17:27:51.162Z,90.70
2023-04-01T17:33:22.712Z,91.20
2023-04-01T17:38:49.340Z,91.10
2023-04-01T17:44:04.516Z,91.10
2023-04-01T17:49:26.659Z,91.00
2023-04-01T17:54:42.871Z,91.20
2023-04-01T17:59:58.296Z,91.20
2023-04-01T18:05:28.126Z,91.30
2023-04-01T18:10:39.835Z,91.20
2023-04-01T18:15:55.775Z,90.90
2023-04-01T18:21:08.768Z,91.30
2023-04-01T18:26:19.795Z,91.30
2023-04-01T18:31:33.210Z,91.20
2023-04-01T18:36:49.403Z,91.60
2023-04-01T18:42:04.074Z,91.60
2023-04-01T18:47:25.804Z,91.90
2023-04-01T18:52:36.453Z,91.20
2023-04-01T18:57:48.914Z,91.30
2023-04-01T19:03:07.396Z,91.60
2023-04-01T19:08:27.277Z,91.40
2023-04-01T19:13:45.392Z,91.40
2023-04-01T19:19:14.209Z,90.80
2023-04-01T19:25:03.061Z,90.70
2023-04-01T19:30:49.298Z,90.70
2023-04-01T19:36:04.937Z,91.20
2023-04-01T19:41:25.614Z,90.80
2023-04-01T19:46:37.412Z,90.90
2023-04-01T19:51:52.145Z,90.20
2023-04-01T19:57:10.406Z,90.50
2023-04-01T20:02:45.497Z,90.70
2023-04-01T20:07:54.402Z,91.00
2023-04-01T20:13:04.987Z,90.70
2023-04-01T20:18:17.401Z,90.80
2023-04-01T20:23:41.714Z,90.60
2023-04-01T20:28:58.748Z,90.50
2023-04-01T20:34:32.845Z,90.50
2023-04-01T20:40:21.103Z,91.30
2023-04-01T20:45:38.773Z,91.20
2023-04-01T20:50:51.724Z,91.10
2023-04-01T20:56:27.324Z,91.20
2023-04-01T21:01:47.460Z,90.90
2023-04-01T21:07:17.224Z,90.70
2023-04-01T21:12:35.586Z,90.60
2023-04-01T21:17:54.410Z,90.60
2023-04-01T21:23:28.764Z,90.90
2023-04-01T21:28:44.394Z,91.00
2023-04-01T21:34:41.660Z,90.80
2023-04-01T21:40:10.336Z,90.40
2023-04-01T21:45:44.891Z,90.60
2023-04-01T21:51:22.995Z,90.50
2023-04-01T21:57:18.472Z,90.60
2023-04-01T22:03:27.291Z,90.80
2023-04-01T22:08:57.380Z,90.80
2023-04-01T22:14:07.992Z,90.40
2023-04-01T22:19:24.070Z,90.30
2023-04-01T22:24:47.241Z,90.20
2023-04-01T22:30:01.885Z,89.50
2023-04-01T22:35:20.151Z,90.00
2023-04-01T22:40:30.677Z,90.20
2023-04-01T22:46:10.847Z,90.30
2023-04-01T22:51:23.125Z,89.50
2023-04-01T22:56:35.687Z,90.10
2023-04-01T23:01:46.810Z,90.20
2023-04-01T23:06:58.553Z,90.10
2023-04-01T23:12:06.267Z,90.30
2023-04-01T23:17:35.479Z,90.10
2023-04-01T23:22:54.131Z,89.60
2023-04-01T23:28:31.273Z,90.20
2023-04-01T23:33:33.986Z,90.00
2023-04-01T23:38:42.110Z,89.40
2023-04-01T23:43:48.469Z,88.50
2023-04-01T23:48:51.264Z,88.40
2023-04-01T23:54:11.001Z,89.00
2023-04-01T23:59:19.645Z,89.10
